PWSweather.com
Personal Weather Stations
Station Observations
WAREHAM1
West Wareham, MA 02576

West Wareham, MA 02576

Lat: 41.7961059, Lon: -70.775612

Elevation: 88

Station Type: Davis Vantage Vue

http://www.gateway2capecod.com

High Low Average
Temperature 48.4°F9.1°C 31.3°F-0.4°C 38.5°F3.6°C
Dew Point 35.1°F1.7°C 19.0°F-7.2°C 28.4°F-2.0°C
Winds 6.0 mph 9.7 kmh 0.9 mph 1.4 kmh 3.0 mph WSW4.8 kmh WSW
Wind Gusts 22.0 mph35.4 kmh 4.0 mph6.4 kmh 12.0 mph19.3 kmh
Humidity 94% 48% 69%
Pressure 30.00 in1015.9 mb 29.27 in991.2 mb -
Precipitation 0.06 in1.5 mm - -
Hour Temp Dew Point Humidity Winds Wind Gusts Pressure Precip Precip Rate Daily Precip Total
12:09 AM 38.3°F3.5°C 35.6°F2.0°C 90% 2.0 mph SSW3.2 kmh SSW 11.0 mph17.7 kmh 29.26 in990.9 mb 0.01 in0.3 mm 0.07 in1.8 mm 0.01 in0.3 mm
12:19 AM 38.3°F3.5°C 35.6°F2.0°C 90% 2.9 mph SE4.7 kmh SE 13.0 mph20.9 kmh 29.26 in990.9 mb 0.01 in0.3 mm 0.00 in0.0 mm 0.01 in0.3 mm
12:29 AM 38.3°F3.5°C 35.6°F2.0°C 90% 4.0 mph SW6.4 kmh SW 12.1 mph19.5 kmh 29.27 in991.2 mb 0.01 in0.3 mm 0.00 in0.0 mm 0.01 in0.3 mm
12:39 AM 38.1°F3.4°C 35.2°F1.8°C 89% 2.9 mph NNW4.7 kmh NNW 11.0 mph17.7 kmh 29.27 in991.2 mb 0.01 in0.3 mm 0.00 in0.0 mm 0.01 in0.3 mm
12:49 AM 38.1°F3.4°C 35.2°F1.8°C 89% 2.9 mph WNW4.7 kmh WNW 15.0 mph24.1 kmh 29.27 in991.2 mb 0.01 in0.3 mm 0.00 in0.0 mm 0.01 in0.3 mm
12:59 AM 38.1°F3.4°C 35.2°F1.8°C 89% 2.9 mph N4.7 kmh N 11.0 mph17.7 kmh 29.27 in991.2 mb 0.00 in0.0 mm 0.00 in0.0 mm 0.01 in0.3 mm
01:09 AM 37.9°F3.3°C 35.1°F1.7°C 89% 2.9 mph S4.7 kmh S 16.1 mph25.9 kmh 29.27 in991.2 mb 0.00 in0.0 mm 0.00 in0.0 mm 0.01 in0.3 mm
01:19 AM 37.8°F3.2°C 34.9°F1.6°C 89% 2.9 mph W4.7 kmh W 11.0 mph17.7 kmh 29.28 in991.5 mb 0.00 in0.0 mm 0.00 in0.0 mm 0.01 in0.3 mm
01:29 AM 37.6°F3.1°C 34.9°F1.6°C 90% 2.9 mph WSW4.7 kmh WSW 10.1 mph16.3 kmh 29.28 in991.5 mb 0.00 in0.0 mm 0.00 in0.0 mm 0.01 in0.3 mm
01:39 AM 37.0°F2.8°C 34.7°F1.5°C 91% 2.0 mph SSW3.2 kmh SSW 8.1 mph13.0 kmh 29.28 in991.5 mb 0.01 in0.3 mm 0.06 in1.5 mm 0.01 in0.3 mm
01:49 AM 36.9°F2.7°C 34.5°F1.4°C 91% 2.9 mph WSW4.7 kmh WSW 12.1 mph19.5 kmh 29.28 in991.5 mb 0.01 in0.3 mm 0.00 in0.0 mm 0.01 in0.3 mm
01:59 AM 36.5°F2.5°C 34.2°F1.2°C 91% 2.9 mph NE4.7 kmh NE 12.1 mph19.5 kmh 29.29 in991.9 mb 0.01 in0.3 mm 0.00 in0.0 mm 0.01 in0.3 mm
02:09 AM 36.1°F2.3°C 33.8°F1.0°C 91% 4.0 mph SW6.4 kmh SW 12.1 mph19.5 kmh 29.29 in991.9 mb 0.02 in0.5 mm 0.01 in0.3 mm 0.02 in0.5 mm
02:19 AM 36.0°F2.2°C 33.6°F0.9°C 91% 2.9 mph NE4.7 kmh NE 8.9 mph14.3 kmh 29.29 in991.9 mb 0.02 in0.5 mm 0.00 in0.0 mm 0.02 in0.5 mm
02:29 AM 35.8°F2.1°C 33.6°F0.9°C 92% 2.9 mph S4.7 kmh S 10.1 mph16.3 kmh 29.29 in991.9 mb 0.02 in0.5 mm 0.00 in0.0 mm 0.02 in0.5 mm
02:39 AM 35.8°F2.1°C 33.6°F0.9°C 92% 2.9 mph WSW4.7 kmh WSW 13.0 mph20.9 kmh 29.29 in991.9 mb 0.01 in0.3 mm 0.00 in0.0 mm 0.02 in0.5 mm
02:49 AM 35.4°F1.9°C 33.3°F0.7°C 92% 4.0 mph SSW6.4 kmh SSW 13.0 mph20.9 kmh 29.30 in992.2 mb 0.02 in0.5 mm 0.06 in1.5 mm 0.03 in0.8 mm
02:59 AM 34.7°F1.5°C 32.5°F0.3°C 92% 2.9 mph WSW4.7 kmh WSW 10.1 mph16.3 kmh 29.30 in992.2 mb 0.02 in0.5 mm 0.00 in0.0 mm 0.03 in0.8 mm
03:09 AM 34.0°F1.1°C 31.8°F-0.1°C 92% 2.9 mph SW4.7 kmh SW 12.1 mph19.5 kmh 29.30 in992.2 mb 0.01 in0.3 mm 0.00 in0.0 mm 0.03 in0.8 mm
03:19 AM 33.6°F0.9°C 31.8°F-0.1°C 93% 2.0 mph WNW3.2 kmh WNW 10.1 mph16.3 kmh 29.30 in992.2 mb 0.01 in0.3 mm 0.00 in0.0 mm 0.03 in0.8 mm
03:29 AM 33.3°F0.7°C 31.5°F-0.3°C 93% 4.0 mph WSW6.4 kmh WSW 13.0 mph20.9 kmh 29.30 in992.2 mb 0.01 in0.3 mm 0.00 in0.0 mm 0.03 in0.8 mm
03:39 AM 33.1°F0.6°C 31.5°F-0.3°C 94% 2.0 mph WSW3.2 kmh WSW 10.0 mph16.1 kmh 29.30 in992.2 mb 0.01 in0.3 mm 0.00 in0.0 mm 0.03 in0.8 mm
03:49 AM 33.1°F0.6°C 31.5°F-0.3°C 94% 2.0 mph ESE3.2 kmh ESE 10.1 mph16.3 kmh 29.31 in992.6 mb 0.00 in0.0 mm 0.00 in0.0 mm 0.03 in0.8 mm
03:59 AM 32.7°F0.4°C 31.1°F-0.5°C 94% 2.9 mph W4.7 kmh W 10.1 mph16.3 kmh 29.31 in992.6 mb 0.00 in0.0 mm 0.00 in0.0 mm 0.03 in0.8 mm
04:09 AM 32.7°F0.4°C 31.1°F-0.5°C 94% 2.0 mph WSW3.2 kmh WSW 8.1 mph13.0 kmh 29.31 in992.6 mb 0.00 in0.0 mm 0.00 in0.0 mm 0.03 in0.8 mm
04:19 AM 32.5°F0.3°C 30.9°F-0.6°C 94% 4.0 mph SSW6.4 kmh SSW 13.0 mph20.9 kmh 29.31 in992.6 mb 0.00 in0.0 mm 0.00 in0.0 mm 0.03 in0.8 mm
04:29 AM 32.2°F0.1°C 30.6°F-0.8°C 94% 2.9 mph SSE4.7 kmh SSE 15.0 mph24.1 kmh 29.32 in992.9 mb 0.00 in0.0 mm 0.00 in0.0 mm 0.03 in0.8 mm
04:39 AM 32.0°F0.0°C 30.6°F-0.8°C 94% 2.9 mph WSW4.7 kmh WSW 12.0 mph19.3 kmh 29.32 in992.9 mb 0.00 in0.0 mm 0.00 in0.0 mm 0.03 in0.8 mm
04:49 AM 32.0°F0.0°C 30.6°F-0.8°C 94% 2.0 mph SW3.2 kmh SW 9.0 mph14.5 kmh 29.32 in992.9 mb 0.00 in0.0 mm 0.00 in0.0 mm 0.03 in0.8 mm
04:59 AM 31.8°F-0.1°C 30.4°F-0.9°C 94% 2.9 mph NW4.7 kmh NW 10.1 mph16.3 kmh 29.33 in993.2 mb 0.00 in0.0 mm 0.00 in0.0 mm 0.03 in0.8 mm
05:09 AM 31.8°F-0.1°C 30.0°F-1.1°C 93% 2.9 mph WNW4.7 kmh WNW 11.0 mph17.7 kmh 29.33 in993.2 mb 0.00 in0.0 mm 0.00 in0.0 mm 0.03 in0.8 mm
05:20 AM 31.8°F-0.1°C 30.0°F-1.1°C 93% 2.0 mph NW3.2 kmh NW 8.9 mph14.3 kmh 29.33 in993.2 mb 0.00 in0.0 mm 0.00 in0.0 mm 0.03 in0.8 mm
05:30 AM 31.8°F-0.1°C 30.0°F-1.1°C 93% 2.9 mph SW4.7 kmh SW 10.0 mph16.1 kmh 29.34 in993.6 mb 0.00 in0.0 mm 0.00 in0.0 mm 0.03 in0.8 mm
05:40 AM 31.6°F-0.2°C 29.8°F-1.2°C 93% 2.0 mph WNW3.2 kmh WNW 11.0 mph17.7 kmh 29.35 in993.9 mb 0.00 in0.0 mm 0.00 in0.0 mm 0.03 in0.8 mm
05:50 AM 31.6°F-0.2°C 29.8°F-1.2°C 93% 2.9 mph SE4.7 kmh SE 10.1 mph16.3 kmh 29.35 in993.9 mb 0.00 in0.0 mm 0.00 in0.0 mm 0.03 in0.8 mm
06:00 AM 31.6°F-0.2°C 29.8°F-1.2°C 93% 2.9 mph S4.7 kmh S 14.0 mph22.5 kmh 29.36 in994.2 mb 0.00 in0.0 mm 0.00 in0.0 mm 0.03 in0.8 mm
06:10 AM 31.6°F-0.2°C 29.7°F-1.3°C 92% 2.9 mph SE4.7 kmh SE 12.0 mph19.3 kmh 29.36 in994.2 mb 0.00 in0.0 mm 0.00 in0.0 mm 0.03 in0.8 mm
06:20 AM 31.6°F-0.2°C 29.7°F-1.3°C 92% 2.9 mph SSW4.7 kmh SSW 14.1 mph22.7 kmh 29.37 in994.6 mb 0.00 in0.0 mm 0.00 in0.0 mm 0.03 in0.8 mm
06:30 AM 31.5°F-0.3°C 29.5°F-1.4°C 92% 2.9 mph SW4.7 kmh SW 10.1 mph16.3 kmh 29.38 in994.9 mb 0.00 in0.0 mm 0.00 in0.0 mm 0.03 in0.8 mm
06:40 AM 31.3°F-0.4°C 29.3°F-1.5°C 92% 4.0 mph W6.4 kmh W 11.0 mph17.7 kmh 29.39 in995.3 mb 0.00 in0.0 mm 0.00 in0.0 mm 0.03 in0.8 mm
06:50 AM 31.3°F-0.4°C 29.3°F-1.5°C 92% 2.9 mph W4.7 kmh W 12.1 mph19.5 kmh 29.39 in995.3 mb 0.00 in0.0 mm 0.00 in0.0 mm 0.03 in0.8 mm
07:00 AM 31.5°F-0.3°C 29.5°F-1.4°C 92% 2.9 mph NW4.7 kmh NW 11.0 mph17.7 kmh 29.41 in995.9 mb 0.00 in0.0 mm 0.00 in0.0 mm 0.03 in0.8 mm
07:10 AM 31.3°F-0.4°C 29.3°F-1.5°C 92% 2.9 mph NNW4.7 kmh NNW 10.1 mph16.3 kmh 29.42 in996.3 mb 0.00 in0.0 mm 0.00 in0.0 mm 0.03 in0.8 mm
07:20 AM 31.5°F-0.3°C 29.5°F-1.4°C 92% 2.9 mph S4.7 kmh S 15.0 mph24.1 kmh 29.42 in996.3 mb 0.00 in0.0 mm 0.00 in0.0 mm 0.03 in0.8 mm
07:30 AM 31.6°F-0.2°C 29.3°F-1.5°C 91% 2.9 mph WNW4.7 kmh WNW 10.1 mph16.3 kmh 29.43 in996.6 mb 0.00 in0.0 mm 0.00 in0.0 mm 0.03 in0.8 mm
07:40 AM 31.8°F-0.1°C 29.3°F-1.5°C 90% 2.9 mph N4.7 kmh N 11.0 mph17.7 kmh 29.44 in997.0 mb 0.00 in0.0 mm 0.00 in0.0 mm 0.03 in0.8 mm
07:50 AM 31.8°F-0.1°C 28.9°F-1.7°C 89% 4.0 mph W6.4 kmh W 16.0 mph25.7 kmh 29.45 in997.3 mb 0.00 in0.0 mm 0.00 in0.0 mm 0.03 in0.8 mm
08:00 AM 32.2°F0.1°C 28.9°F-1.7°C 88% 4.0 mph NNW6.4 kmh NNW 16.0 mph25.7 kmh 29.45 in997.3 mb 0.00 in0.0 mm 0.00 in0.0 mm 0.03 in0.8 mm
08:10 AM 32.4°F0.2°C 29.1°F-1.6°C 88% 2.9 mph WNW4.7 kmh WNW 10.1 mph16.3 kmh 29.47 in998.0 mb 0.00 in0.0 mm 0.00 in0.0 mm 0.03 in0.8 mm
08:20 AM 32.7°F0.4°C 28.9°F-1.7°C 86% 4.0 mph WSW6.4 kmh WSW 11.0 mph17.7 kmh 29.47 in998.0 mb 0.00 in0.0 mm 0.00 in0.0 mm 0.03 in0.8 mm
08:30 AM 32.7°F0.4°C 29.3°F-1.5°C 87% 2.9 mph WSW4.7 kmh WSW 14.1 mph22.7 kmh 29.48 in998.3 mb 0.00 in0.0 mm 0.00 in0.0 mm 0.03 in0.8 mm
08:40 AM 32.9°F0.5°C 29.1°F-1.6°C 86% 4.0 mph N6.4 kmh N 10.1 mph16.3 kmh 29.49 in998.6 mb 0.00 in0.0 mm 0.00 in0.0 mm 0.03 in0.8 mm
08:50 AM 33.3°F0.7°C 28.9°F-1.7°C 84% 2.9 mph WSW4.7 kmh WSW 13.0 mph20.9 kmh 29.49 in998.6 mb 0.00 in0.0 mm 0.00 in0.0 mm 0.03 in0.8 mm
09:00 AM 33.4°F0.8°C 28.6°F-1.9°C 82% 4.0 mph E6.4 kmh E 10.1 mph16.3 kmh 29.50 in999.0 mb 0.00 in0.0 mm 0.00 in0.0 mm 0.03 in0.8 mm
09:10 AM 33.6°F0.9°C 28.9°F-1.7°C 83% 2.0 mph W3.2 kmh W 11.0 mph17.7 kmh 29.51 in999.3 mb 0.00 in0.0 mm 0.00 in0.0 mm 0.03 in0.8 mm
09:20 AM 34.0°F1.1°C 28.4°F-2.0°C 80% 4.0 mph W6.4 kmh W 12.1 mph19.5 kmh 29.52 in999.7 mb 0.00 in0.0 mm 0.00 in0.0 mm 0.03 in0.8 mm
09:30 AM 34.5°F1.4°C 28.8°F-1.8°C 79% 4.0 mph NW6.4 kmh NW 13.0 mph20.9 kmh 29.52 in999.7 mb 0.00 in0.0 mm 0.00 in0.0 mm 0.03 in0.8 mm
09:40 AM 35.1°F1.7°C 28.9°F-1.7°C 78% 4.0 mph WNW6.4 kmh WNW 13.0 mph20.9 kmh 29.53 in1000.0 mb 0.00 in0.0 mm 0.00 in0.0 mm 0.03 in0.8 mm
09:50 AM 35.4°F1.9°C 28.9°F-1.7°C 77% 4.0 mph NW6.4 kmh NW 13.0 mph20.9 kmh 29.53 in1000.0 mb 0.01 in0.3 mm 0.06 in1.5 mm 0.04 in1.0 mm
10:00 AM 36.5°F2.5°C 29.7°F-1.3°C 76% 4.9 mph NW7.9 kmh NW 17.0 mph27.4 kmh 29.54 in1000.3 mb 0.01 in0.3 mm 0.00 in0.0 mm 0.04 in1.0 mm
10:10 AM 37.6°F3.1°C 30.0°F-1.1°C 74% 4.0 mph NNE6.4 kmh NNE 16.1 mph25.9 kmh 29.55 in1000.7 mb 0.02 in0.5 mm 0.06 in1.5 mm 0.05 in1.3 mm
10:20 AM 37.4°F3.0°C 29.1°F-1.6°C 72% 4.9 mph WNW7.9 kmh WNW 15.0 mph24.1 kmh 29.56 in1001.0 mb 0.02 in0.5 mm 0.00 in0.0 mm 0.05 in1.3 mm
10:30 AM 37.9°F3.3°C 29.3°F-1.5°C 71% 4.0 mph WNW6.4 kmh WNW 16.0 mph25.7 kmh 29.55 in1000.7 mb 0.03 in0.8 mm 0.06 in1.5 mm 0.06 in1.5 mm
10:40 AM 38.3°F3.5°C 29.3°F-1.5°C 70% 4.9 mph NW7.9 kmh NW 12.1 mph19.5 kmh 29.56 in1001.0 mb 0.03 in0.8 mm 0.00 in0.0 mm 0.06 in1.5 mm
10:50 AM 39.2°F4.0°C 29.5°F-1.4°C 68% 4.0 mph 6.4 kmh 14.1 mph22.7 kmh 29.57 in1001.4 mb 0.02 in0.5 mm 0.00 in0.0 mm 0.06 in1.5 mm
11:00 AM 39.7°F4.3°C 30.0°F-1.1°C 68% 4.0 mph NW6.4 kmh NW 11.0 mph17.7 kmh 29.57 in1001.4 mb 0.02 in0.5 mm 0.00 in0.0 mm 0.06 in1.5 mm
11:10 AM 40.6°F4.8°C 30.6°F-0.8°C 67% 2.9 mph WNW4.7 kmh WNW 11.0 mph17.7 kmh 29.57 in1001.4 mb 0.01 in0.3 mm 0.00 in0.0 mm 0.06 in1.5 mm
11:20 AM 41.2°F5.1°C 30.4°F-0.9°C 65% 4.0 mph W6.4 kmh W 13.0 mph20.9 kmh 29.58 in1001.7 mb 0.01 in0.3 mm 0.00 in0.0 mm 0.06 in1.5 mm
11:30 AM 41.4°F5.2°C 30.0°F-1.1°C 64% 4.9 mph E7.9 kmh E 14.1 mph22.7 kmh 29.59 in1002.0 mb 0.00 in0.0 mm 0.00 in0.0 mm 0.06 in1.5 mm
11:40 AM 42.1°F5.6°C 30.4°F-0.9°C 63% 4.9 mph W7.9 kmh W 16.1 mph25.9 kmh 29.59 in1002.0 mb 0.00 in0.0 mm 0.00 in0.0 mm 0.06 in1.5 mm
11:50 AM 42.3°F5.7°C 30.2°F-1.0°C 62% 4.9 mph W7.9 kmh W 17.0 mph27.4 kmh 29.60 in1002.4 mb 0.00 in0.0 mm 0.00 in0.0 mm 0.06 in1.5 mm
12:00 PM 43.0°F6.1°C 30.4°F-0.9°C 61% 4.0 mph SW6.4 kmh SW 21.0 mph33.8 kmh 29.60 in1002.4 mb 0.00 in0.0 mm 0.00 in0.0 mm 0.06 in1.5 mm
12:10 PM 43.3°F6.3°C 30.4°F-0.9°C 60% 4.9 mph SW7.9 kmh SW 16.1 mph25.9 kmh 29.60 in1002.4 mb 0.00 in0.0 mm 0.00 in0.0 mm 0.06 in1.5 mm
12:20 PM 43.3°F6.3°C 30.4°F-0.9°C 60% 4.9 mph SW7.9 kmh SW 17.0 mph27.4 kmh 29.61 in1002.7 mb 0.00 in0.0 mm 0.00 in0.0 mm 0.06 in1.5 mm
12:30 PM 44.1°F6.7°C 31.5°F-0.3°C 61% 4.0 mph SW6.4 kmh SW 11.0 mph17.7 kmh 29.61 in1002.7 mb 0.00 in0.0 mm 0.00 in0.0 mm 0.06 in1.5 mm
12:40 PM 45.0°F7.2°C 31.5°F-0.3°C 59% 2.9 mph WSW4.7 kmh WSW 8.9 mph14.3 kmh 29.61 in1002.7 mb 0.00 in0.0 mm 0.00 in0.0 mm 0.06 in1.5 mm
12:50 PM 45.0°F7.2°C 30.6°F-0.8°C 57% 4.9 mph SW7.9 kmh SW 14.1 mph22.7 kmh 29.61 in1002.7 mb 0.00 in0.0 mm 0.00 in0.0 mm 0.06 in1.5 mm
01:00 PM 45.3°F7.4°C 30.9°F-0.6°C 57% 4.0 mph S6.4 kmh S 16.1 mph25.9 kmh 29.62 in1003.0 mb 0.00 in0.0 mm 0.00 in0.0 mm 0.06 in1.5 mm
01:10 PM 45.9°F7.7°C 31.1°F-0.5°C 56% 4.0 mph WNW6.4 kmh WNW 15.0 mph24.1 kmh 29.62 in1003.0 mb 0.00 in0.0 mm 0.00 in0.0 mm 0.06 in1.5 mm
01:20 PM 46.2°F7.9°C 31.5°F-0.3°C 56% 4.9 mph W7.9 kmh W 18.0 mph29.0 kmh 29.63 in1003.4 mb 0.00 in0.0 mm 0.00 in0.0 mm 0.06 in1.5 mm
01:30 PM 46.8°F8.2°C 30.9°F-0.6°C 54% 2.9 mph SE4.7 kmh SE 16.1 mph25.9 kmh 29.63 in1003.4 mb 0.00 in0.0 mm 0.00 in0.0 mm 0.06 in1.5 mm
01:40 PM 46.6°F8.1°C 30.7°F-0.7°C 54% 4.9 mph NW7.9 kmh NW 12.0 mph19.3 kmh 29.64 in1003.7 mb 0.00 in0.0 mm 0.00 in0.0 mm 0.06 in1.5 mm
01:50 PM 47.1°F8.4°C 31.8°F-0.1°C 55% 2.9 mph NW4.7 kmh NW 12.1 mph19.5 kmh 29.65 in1004.1 mb 0.00 in0.0 mm 0.00 in0.0 mm 0.06 in1.5 mm
02:00 PM 46.9°F8.3°C 31.1°F-0.5°C 54% 4.9 mph NNW7.9 kmh NNW 14.0 mph22.5 kmh 29.65 in1004.1 mb 0.00 in0.0 mm 0.00 in0.0 mm 0.06 in1.5 mm
02:10 PM 46.8°F8.2°C 30.6°F-0.8°C 53% 4.0 mph WSW6.4 kmh WSW 15.0 mph24.1 kmh 29.65 in1004.1 mb 0.00 in0.0 mm 0.00 in0.0 mm 0.06 in1.5 mm
02:20 PM 46.2°F7.9°C 30.0°F-1.1°C 53% 6.0 mph WNW9.7 kmh WNW 16.1 mph25.9 kmh 29.65 in1004.1 mb 0.00 in0.0 mm 0.00 in0.0 mm 0.06 in1.5 mm
02:30 PM 45.9°F7.7°C 29.7°F-1.3°C 53% 6.0 mph WSW9.7 kmh WSW 22.0 mph35.4 kmh 29.65 in1004.1 mb 0.00 in0.0 mm 0.00 in0.0 mm 0.06 in1.5 mm
02:40 PM 45.9°F7.7°C 30.2°F-1.0°C 54% 4.9 mph ESE7.9 kmh ESE 15.0 mph24.1 kmh 29.66 in1004.4 mb 0.00 in0.0 mm 0.00 in0.0 mm 0.06 in1.5 mm
03:19 PM 45.7°F7.6°C 29.5°F-1.4°C 53% 4.9 mph WNW7.9 kmh WNW 4.0 mph6.4 kmh 29.68 in1005.1 mb 0.00 in0.0 mm 0.00 in0.0 mm 0.06 in1.5 mm
03:29 PM 45.1°F7.3°C 28.6°F-1.9°C 52% 4.9 mph ESE7.9 kmh ESE 13.0 mph20.9 kmh 29.68 in1005.1 mb 0.00 in0.0 mm 0.00 in0.0 mm 0.06 in1.5 mm
03:39 PM 45.3°F7.4°C 29.1°F-1.6°C 53% 4.9 mph E7.9 kmh E 12.0 mph19.3 kmh 29.68 in1005.1 mb 0.00 in0.0 mm 0.00 in0.0 mm 0.06 in1.5 mm
03:49 PM 45.1°F7.3°C 28.9°F-1.7°C 53% 4.0 mph WSW6.4 kmh WSW 15.0 mph24.1 kmh 29.69 in1005.4 mb 0.00 in0.0 mm 0.00 in0.0 mm 0.06 in1.5 mm
03:59 PM 45.7°F7.6°C 29.5°F-1.4°C 53% 4.9 mph S7.9 kmh S 22.0 mph35.4 kmh 29.70 in1005.8 mb 0.00 in0.0 mm 0.00 in0.0 mm 0.06 in1.5 mm
04:09 PM 46.2°F7.9°C 29.5°F-1.4°C 52% 4.9 mph NW7.9 kmh NW 12.1 mph19.5 kmh 29.70 in1005.8 mb 0.00 in0.0 mm 0.00 in0.0 mm 0.06 in1.5 mm
04:20 PM 47.1°F8.4°C 29.8°F-1.2°C 51% 4.0 mph WSW6.4 kmh WSW 11.0 mph17.7 kmh 29.70 in1005.8 mb 0.00 in0.0 mm 0.00 in0.0 mm 0.06 in1.5 mm
04:30 PM 47.7°F8.7°C 30.4°F-0.9°C 51% 4.0 mph W6.4 kmh W 12.1 mph19.5 kmh 29.71 in1006.1 mb 0.00 in0.0 mm 0.00 in0.0 mm 0.06 in1.5 mm
04:40 PM 48.4°F9.1°C 30.0°F-1.1°C 49% 4.0 mph NW6.4 kmh NW 11.0 mph17.7 kmh 29.72 in1006.4 mb 0.00 in0.0 mm 0.00 in0.0 mm 0.06 in1.5 mm
04:50 PM 48.4°F9.1°C 30.0°F-1.1°C 49% 4.0 mph WSW6.4 kmh WSW 11.0 mph17.7 kmh 29.72 in1006.4 mb 0.00 in0.0 mm 0.00 in0.0 mm 0.06 in1.5 mm
05:00 PM 48.4°F9.1°C 29.7°F-1.3°C 48% 4.0 mph NW6.4 kmh NW 19.9 mph32.0 kmh 29.72 in1006.4 mb 0.00 in0.0 mm 0.00 in0.0 mm 0.06 in1.5 mm
05:10 PM 47.8°F8.8°C 29.7°F-1.3°C 49% 4.9 mph SW7.9 kmh SW 19.9 mph32.0 kmh 29.73 in1006.8 mb 0.00 in0.0 mm 0.00 in0.0 mm 0.06 in1.5 mm
05:20 PM 47.8°F8.8°C 29.7°F-1.3°C 49% 4.0 mph W6.4 kmh W 17.0 mph27.4 kmh 29.74 in1007.1 mb 0.00 in0.0 mm 0.00 in0.0 mm 0.06 in1.5 mm
05:30 PM 47.7°F8.7°C 30.0°F-1.1°C 50% 4.0 mph WNW6.4 kmh WNW 13.0 mph20.9 kmh 29.75 in1007.5 mb 0.00 in0.0 mm 0.00 in0.0 mm 0.06 in1.5 mm
05:40 PM 46.9°F8.3°C 29.3°F-1.5°C 50% 4.0 mph WSW6.4 kmh WSW 14.1 mph22.7 kmh 29.75 in1007.5 mb 0.00 in0.0 mm 0.00 in0.0 mm 0.06 in1.5 mm
05:50 PM 46.4°F8.0°C 29.3°F-1.5°C 51% 4.0 mph WNW6.4 kmh WNW 10.1 mph16.3 kmh 29.76 in1007.8 mb 0.00 in0.0 mm 0.00 in0.0 mm 0.06 in1.5 mm
06:00 PM 45.7°F7.6°C 28.6°F-1.9°C 51% 4.0 mph W6.4 kmh W 13.0 mph20.9 kmh 29.77 in1008.1 mb 0.00 in0.0 mm 0.00 in0.0 mm 0.06 in1.5 mm
06:10 PM 45.3°F7.4°C 29.1°F-1.6°C 53% 2.0 mph WSW3.2 kmh WSW 14.1 mph22.7 kmh 29.78 in1008.5 mb 0.00 in0.0 mm 0.00 in0.0 mm 0.06 in1.5 mm
06:20 PM 45.0°F7.2°C 28.9°F-1.7°C 53% 2.9 mph WNW4.7 kmh WNW 11.0 mph17.7 kmh 29.78 in1008.5 mb 0.00 in0.0 mm 0.00 in0.0 mm 0.06 in1.5 mm
06:30 PM 44.4°F6.9°C 28.4°F-2.0°C 53% 4.0 mph NW6.4 kmh NW 10.1 mph16.3 kmh 29.79 in1008.8 mb 0.00 in0.0 mm 0.00 in0.0 mm 0.06 in1.5 mm
06:40 PM 43.9°F6.6°C 28.4°F-2.0°C 54% 2.0 mph W3.2 kmh W 8.1 mph13.0 kmh 29.80 in1009.1 mb 0.00 in0.0 mm 0.00 in0.0 mm 0.06 in1.5 mm
06:50 PM 43.5°F6.4°C 28.4°F-2.0°C 55% 2.9 mph W4.7 kmh W 10.0 mph16.1 kmh 29.81 in1009.5 mb 0.00 in0.0 mm 0.00 in0.0 mm 0.06 in1.5 mm
07:00 PM 43.0°F6.1°C 27.9°F-2.3°C 55% 2.0 mph W3.2 kmh W 6.9 mph11.1 kmh 29.81 in1009.5 mb 0.00 in0.0 mm 0.00 in0.0 mm 0.06 in1.5 mm
07:10 PM 42.6°F5.9°C 28.0°F-2.2°C 56% 2.9 mph W4.7 kmh W 10.1 mph16.3 kmh 29.83 in1010.2 mb 0.00 in0.0 mm 0.00 in0.0 mm 0.06 in1.5 mm
07:20 PM 42.3°F5.7°C 27.3°F-2.6°C 55% 2.0 mph WSW3.2 kmh WSW 10.1 mph16.3 kmh 29.83 in1010.2 mb 0.00 in0.0 mm 0.00 in0.0 mm 0.06 in1.5 mm
07:30 PM 41.7°F5.4°C 27.1°F-2.7°C 56% 2.0 mph W3.2 kmh W 6.9 mph11.1 kmh 29.84 in1010.5 mb 0.00 in0.0 mm 0.00 in0.0 mm 0.06 in1.5 mm
07:40 PM 41.4°F5.2°C 26.4°F-3.1°C 55% 2.9 mph WNW4.7 kmh WNW 17.9 mph28.8 kmh 29.85 in1010.8 mb 0.00 in0.0 mm 0.00 in0.0 mm 0.06 in1.5 mm
07:50 PM 40.8°F4.9°C 26.4°F-3.1°C 56% 2.9 mph NNW4.7 kmh NNW 8.9 mph14.3 kmh 29.85 in1010.8 mb 0.00 in0.0 mm 0.00 in0.0 mm 0.06 in1.5 mm
08:00 PM 40.6°F4.8°C 26.2°F-3.2°C 56% 4.0 mph NW6.4 kmh NW 10.1 mph16.3 kmh 29.86 in1011.2 mb 0.00 in0.0 mm 0.00 in0.0 mm 0.06 in1.5 mm
08:10 PM 40.3°F4.6°C 25.9°F-3.4°C 56% 2.0 mph SW3.2 kmh SW 8.1 mph13.0 kmh 29.88 in1011.9 mb 0.00 in0.0 mm 0.00 in0.0 mm 0.06 in1.5 mm
08:20 PM 39.9°F4.4°C 25.9°F-3.4°C 57% 0.9 mph WSW1.4 kmh WSW 6.0 mph9.7 kmh 29.88 in1011.9 mb 0.00 in0.0 mm 0.00 in0.0 mm 0.06 in1.5 mm
08:30 PM 39.9°F4.4°C 25.5°F-3.6°C 56% 4.0 mph S6.4 kmh S 12.0 mph19.3 kmh 29.88 in1011.9 mb 0.00 in0.0 mm 0.00 in0.0 mm 0.06 in1.5 mm
08:40 PM 39.6°F4.2°C 25.2°F-3.8°C 56% 2.0 mph SE3.2 kmh SE 12.1 mph19.5 kmh 29.89 in1012.2 mb 0.00 in0.0 mm 0.00 in0.0 mm 0.06 in1.5 mm
08:50 PM 39.2°F4.0°C 24.8°F-4.0°C 56% 2.0 mph WNW3.2 kmh WNW 8.9 mph14.3 kmh 29.91 in1012.9 mb 0.00 in0.0 mm 0.00 in0.0 mm 0.06 in1.5 mm
09:00 PM 38.8°F3.8°C 24.4°F-4.2°C 56% 2.0 mph SW3.2 kmh SW 9.0 mph14.5 kmh 29.91 in1012.9 mb 0.00 in0.0 mm 0.00 in0.0 mm 0.06 in1.5 mm
09:10 PM 38.5°F3.6°C 23.7°F-4.6°C 55% 2.9 mph WNW4.7 kmh WNW 14.1 mph22.7 kmh 29.91 in1012.9 mb 0.00 in0.0 mm 0.00 in0.0 mm 0.06 in1.5 mm
09:20 PM 38.3°F3.5°C 23.2°F-4.9°C 54% 2.9 mph WNW4.7 kmh WNW 11.0 mph17.7 kmh 29.92 in1013.2 mb 0.00 in0.0 mm 0.00 in0.0 mm 0.06 in1.5 mm
09:30 PM 37.9°F3.3°C 22.8°F-5.1°C 54% 2.0 mph SSW3.2 kmh SSW 8.9 mph14.3 kmh 29.92 in1013.2 mb 0.00 in0.0 mm 0.00 in0.0 mm 0.06 in1.5 mm
09:40 PM 37.9°F3.3°C 22.8°F-5.1°C 54% 2.0 mph ENE3.2 kmh ENE 9.0 mph14.5 kmh 29.93 in1013.5 mb 0.00 in0.0 mm 0.00 in0.0 mm 0.06 in1.5 mm
09:50 PM 37.6°F3.1°C 21.9°F-5.6°C 53% 2.0 mph W3.2 kmh W 8.1 mph13.0 kmh 29.93 in1013.5 mb 0.00 in0.0 mm 0.00 in0.0 mm 0.06 in1.5 mm
10:00 PM 37.4°F3.0°C 21.4°F-5.9°C 52% 2.9 mph NE4.7 kmh NE 12.1 mph19.5 kmh 29.93 in1013.5 mb 0.00 in0.0 mm 0.00 in0.0 mm 0.06 in1.5 mm
10:10 PM 37.2°F2.9°C 21.7°F-5.7°C 53% 2.9 mph W4.7 kmh W 13.0 mph20.9 kmh 29.94 in1013.9 mb 0.00 in0.0 mm 0.00 in0.0 mm 0.06 in1.5 mm
10:30 PM 36.9°F2.7°C 20.5°F-6.4°C 51% 2.0 mph NW3.2 kmh NW 9.0 mph14.5 kmh 29.95 in1014.2 mb 0.00 in0.0 mm 0.00 in0.0 mm 0.06 in1.5 mm
10:40 PM 36.7°F2.6°C 19.8°F-6.8°C 50% 4.9 mph NE7.9 kmh NE 15.0 mph24.1 kmh 29.95 in1014.2 mb 0.00 in0.0 mm 0.00 in0.0 mm 0.06 in1.5 mm
10:50 PM 36.5°F2.5°C 19.6°F-6.9°C 50% 4.0 mph NW6.4 kmh NW 13.0 mph20.9 kmh 29.95 in1014.2 mb 0.00 in0.0 mm 0.00 in0.0 mm 0.06 in1.5 mm
11:00 PM 36.3°F2.4°C 19.0°F-7.2°C 49% 4.0 mph W6.4 kmh W 12.1 mph19.5 kmh 29.95 in1014.2 mb 0.00 in0.0 mm 0.00 in0.0 mm 0.06 in1.5 mm
11:10 PM 36.1°F2.3°C 19.2°F-7.1°C 50% 4.0 mph WNW6.4 kmh WNW 12.0 mph19.3 kmh 29.96 in1014.6 mb 0.00 in0.0 mm 0.00 in0.0 mm 0.06 in1.5 mm
11:20 PM 36.0°F2.2°C 20.1°F-6.6°C 52% 2.9 mph SW4.7 kmh SW 16.1 mph25.9 kmh 29.97 in1014.9 mb 0.00 in0.0 mm 0.00 in0.0 mm 0.06 in1.5 mm
11:30 PM 35.4°F1.9°C 19.9°F-6.7°C 53% 2.9 mph W4.7 kmh W 8.1 mph13.0 kmh 29.97 in1014.9 mb 0.00 in0.0 mm 0.00 in0.0 mm 0.06 in1.5 mm
11:40 PM 35.1°F1.7°C 20.1°F-6.6°C 54% 0.9 mph W1.4 kmh W 8.1 mph13.0 kmh 29.98 in1015.2 mb 0.00 in0.0 mm 0.00 in0.0 mm 0.06 in1.5 mm
11:50 PM 34.9°F1.6°C 19.9°F-6.7°C 54% 2.0 mph N3.2 kmh N 8.1 mph13.0 kmh 29.98 in1015.2 mb 0.00 in0.0 mm 0.00 in0.0 mm 0.06 in1.5 mm